createdAt,value
2023-03-11T00:01:59.686Z,2.33
2023-03-11T00:04:03.134Z,2.40
2023-03-11T00:06:08.383Z,2.29
2023-03-11T00:08:15.013Z,2.23
2023-03-11T00:10:20.250Z,2.28
2023-03-11T00:12:23.642Z,2.45
2023-03-11T00:14:27.063Z,2.52
2023-03-11T00:16:30.508Z,2.52
2023-03-11T00:18:33.950Z,2.55
2023-03-11T00:20:39.159Z,2.16
2023-03-11T00:22:43.909Z,2.54
2023-03-11T00:24:47.202Z,2.50
2023-03-11T00:26:50.558Z,2.58
2023-03-11T00:28:55.450Z,2.43
2023-03-11T00:30:58.752Z,2.40
2023-03-11T00:33:04.840Z,1.50
2023-03-11T00:35:13.786Z,2.47
2023-03-11T00:37:17.495Z,2.66
2023-03-11T00:39:23.250Z,2.59
2023-03-11T00:41:26.952Z,2.60
2023-03-11T00:43:30.273Z,2.64
2023-03-11T00:45:34.218Z,2.63
2023-03-11T00:47:37.715Z,2.47
2023-03-11T00:49:41.132Z,2.61
2023-03-11T00:51:44.835Z,2.61
2023-03-11T00:53:48.154Z,2.64
2023-03-11T00:55:53.424Z,2.79
2023-03-11T00:57:58.345Z,2.57
2023-03-11T01:00:04.571Z,2.59
2023-03-11T01:02:08.004Z,2.60
2023-03-11T01:04:11.547Z,2.67
2023-03-11T01:06:15.737Z,2.57
2023-03-11T01:08:19.074Z,2.84
2023-03-11T01:10:22.660Z,2.83
2023-03-11T01:12:27.388Z,2.97
2023-03-11T01:14:30.683Z,2.94
2023-03-11T01:16:34.083Z,3.05
2023-03-11T01:18:37.590Z,2.90
2023-03-11T01:20:41.343Z,2.90
2023-03-11T01:22:44.832Z,2.96
2023-03-11T01:24:48.181Z,2.91
2023-03-11T01:26:51.568Z,3.03
2023-03-11T01:28:56.236Z,3.10
2023-03-11T01:30:59.892Z,3.17
2023-03-11T01:33:04.041Z,3.20
2023-03-11T01:35:08.215Z,3.19
2023-03-11T01:37:11.679Z,3.24
2023-03-11T01:39:14.990Z,3.32
2023-03-11T01:41:18.481Z,3.26
2023-03-11T01:43:48.310Z,3.27
2023-03-11T01:46:13.538Z,3.27
2023-03-11T01:48:17.969Z,3.22
2023-03-11T01:50:21.833Z,3.37
2023-03-11T01:52:25.279Z,3.35
2023-03-11T01:54:33.179Z,3.39
2023-03-11T01:56:36.977Z,3.40
2023-03-11T01:58:45.606Z,3.37
2023-03-11T02:00:49.361Z,3.37
2023-03-11T02:02:56.606Z,3.40
2023-03-11T02:05:02.239Z,3.28
2023-03-11T02:07:08.126Z,3.04
2023-03-11T02:09:11.915Z,3.03
2023-03-11T02:11:18.817Z,2.92
2023-03-11T02:13:22.621Z,3.25
2023-03-11T02:15:26.895Z,2.97
2023-03-11T02:17:31.760Z,3.18
2023-03-11T02:19:47.775Z,3.11
2023-03-11T02:21:51.222Z,3.11
2023-03-11T02:24:06.479Z,3.22
2023-03-11T02:26:16.204Z,3.34
2023-03-11T02:28:24.307Z,3.43
2023-03-11T02:30:28.746Z,3.48
2023-03-11T02:32:33.181Z,3.50
2023-03-11T02:34:38.516Z,3.46
2023-03-11T02:36:43.998Z,2.69
2023-03-11T02:38:50.192Z,3.31
2023-03-11T02:40:56.668Z,3.29
2023-03-11T02:43:07.504Z,3.19
2023-03-11T02:45:16.116Z,3.11
2023-03-11T02:47:19.809Z,3.07
2023-03-11T02:49:24.403Z,3.06
2023-03-11T02:51:27.828Z,3.10
2023-03-11T02:53:35.332Z,3.12
2023-03-11T02:55:39.161Z,3.01
2023-03-11T02:57:44.127Z,2.81
2023-03-11T02:59:47.977Z,2.59
2023-03-11T03:01:53.109Z,2.72
2023-03-11T03:03:58.354Z,2.69
2023-03-11T03:06:02.178Z,2.43
2023-03-11T03:08:05.597Z,2.77
2023-03-11T03:10:10.384Z,2.79
2023-03-11T03:12:13.756Z,2.73
2023-03-11T03:14:17.434Z,2.66
2023-03-11T03:16:21.088Z,2.74
2023-03-11T03:18:26.936Z,2.81
2023-03-11T03:20:30.354Z,2.74
2023-03-11T03:22:36.618Z,2.82
2023-03-11T03:24:40.211Z,2.81
2023-03-11T03:26:43.795Z,2.81
2023-03-11T03:28:47.733Z,2.81
2023-03-11T03:30:51.418Z,2.67
2023-03-11T03:32:54.897Z,2.64
2023-03-11T03:34:59.976Z,2.62
2023-03-11T03:37:16.808Z,2.70
2023-03-11T03:39:20.449Z,2.73
2023-03-11T03:41:26.408Z,2.43
2023-03-11T03:43:31.268Z,2.64
2023-03-11T03:45:35.482Z,2.59
2023-03-11T03:47:39.241Z,2.68
2023-03-11T03:49:42.621Z,2.43
2023-03-11T03:51:47.531Z,2.47
2023-03-11T03:54:03.049Z,2.52
2023-03-11T03:56:09.070Z,2.44
2023-03-11T03:58:13.108Z,2.24
2023-03-11T04:00:17.547Z,2.32
2023-03-11T04:02:25.179Z,2.39
2023-03-11T04:04:29.028Z,2.16
2023-03-11T04:06:33.675Z,2.32
2023-03-11T04:08:42.477Z,2.42
2023-03-11T04:10:57.395Z,2.51
2023-03-11T04:13:02.441Z,2.40
2023-03-11T04:15:07.284Z,2.54
2023-03-11T04:17:12.789Z,2.61
2023-03-11T04:19:21.154Z,2.72
2023-03-11T04:21:24.897Z,2.75
2023-03-11T04:23:29.920Z,2.81
2023-03-11T04:25:35.372Z,2.85
2023-03-11T04:27:42.579Z,2.81
2023-03-11T04:29:46.401Z,2.76
2023-03-11T04:31:49.963Z,2.58
2023-03-11T04:33:54.587Z,2.76
2023-03-11T04:35:58.707Z,2.03
2023-03-11T04:38:02.286Z,2.76
2023-03-11T04:40:06.921Z,2.73
2023-03-11T04:42:13.931Z,2.79
2023-03-11T04:44:19.357Z,2.83
2023-03-11T04:46:23.161Z,2.84
2023-03-11T04:48:27.620Z,2.58
2023-03-11T04:50:31.362Z,2.76
2023-03-11T04:52:34.722Z,2.81
2023-03-11T04:54:38.107Z,2.78
2023-03-11T04:56:42.299Z,2.71
2023-03-11T04:58:47.067Z,2.60
2023-03-11T05:00:50.745Z,2.53
2023-03-11T05:02:54.495Z,2.45
2023-03-11T05:04:58.610Z,2.25
2023-03-11T05:07:02.418Z,2.23
2023-03-11T05:09:07.347Z,2.36
2023-03-11T05:11:14.461Z,2.38
2023-03-11T05:13:20.337Z,2.44
2023-03-11T05:15:25.679Z,2.49
2023-03-11T05:17:29.353Z,2.48
2023-03-11T05:19:34.685Z,2.50
2023-03-11T05:21:44.619Z,2.49
2023-03-11T05:23:48.019Z,2.51
2023-03-11T05:25:51.661Z,2.53
2023-03-11T05:27:55.072Z,2.54
2023-03-11T05:29:58.530Z,2.55
2023-03-11T05:32:05.691Z,2.58
2023-03-11T05:34:09.106Z,2.59
2023-03-11T05:36:12.642Z,2.54
2023-03-11T05:38:19.037Z,2.60
2023-03-11T05:40:22.972Z,2.63
2023-03-11T05:42:27.531Z,2.65
2023-03-11T05:44:33.241Z,2.72
2023-03-11T05:46:36.785Z,2.70
2023-03-11T05:48:43.805Z,2.70
2023-03-11T05:50:49.317Z,2.72
2023-03-11T05:52:52.882Z,2.72
2023-03-11T05:54:58.138Z,2.75
2023-03-11T05:57:04.694Z,2.67
2023-03-11T05:59:10.420Z,2.75
2023-03-11T06:01:16.936Z,2.78
2023-03-11T06:03:20.971Z,2.77
2023-03-11T06:05:25.765Z,2.77
2023-03-11T06:07:31.143Z,2.75
2023-03-11T06:09:36.853Z,2.74
2023-03-11T06:11:42.005Z,2.75
2023-03-11T06:13:45.502Z,2.74
2023-03-11T06:15:49.745Z,2.72
2023-03-11T06:17:53.714Z,2.72
2023-03-11T06:19:57.030Z,2.77
2023-03-11T06:22:01.891Z,2.94
2023-03-11T06:24:06.723Z,2.97
2023-03-11T06:26:13.416Z,2.94
2023-03-11T06:28:19.046Z,2.93
2023-03-11T06:30:22.990Z,2.90
2023-03-11T06:32:35.380Z,2.91
2023-03-11T06:34:38.905Z,2.97
2023-03-11T06:36:43.612Z,2.96
2023-03-11T06:38:50.061Z,2.93
2023-03-11T06:40:53.899Z,2.89
2023-03-11T06:42:57.485Z,2.92
2023-03-11T06:45:02.826Z,2.91
2023-03-11T06:47:06.538Z,2.83
2023-03-11T06:49:10.086Z,2.81
2023-03-11T06:51:15.864Z,2.85
2023-03-11T06:53:19.983Z,2.58
2023-03-11T06:55:24.987Z,2.90
2023-03-11T06:57:29.475Z,2.66
2023-03-11T06:59:34.870Z,3.03
2023-03-11T07:01:38.718Z,3.02
2023-03-11T07:03:44.214Z,2.86
2023-03-11T07:05:51.693Z,3.00
2023-03-11T07:07:56.500Z,3.00
2023-03-11T07:10:01.904Z,3.05
2023-03-11T07:12:07.292Z,3.01
2023-03-11T07:14:13.147Z,3.11
2023-03-11T07:16:22.559Z,3.08
2023-03-11T07:18:28.503Z,3.07
2023-03-11T07:20:32.997Z,3.03
2023-03-11T07:22:36.312Z,3.00
2023-03-11T07:24:39.621Z,3.00
2023-03-11T07:26:44.613Z,3.06
2023-03-11T07:28:50.286Z,3.02
2023-03-11T07:30:54.280Z,3.01
2023-03-11T07:32:58.312Z,3.07
2023-03-11T07:35:01.690Z,3.10
2023-03-11T07:37:05.104Z,3.11
2023-03-11T07:39:08.542Z,3.12
2023-03-11T07:41:13.933Z,3.07
2023-03-11T07:43:17.501Z,3.16
2023-03-11T07:45:23.441Z,3.15
2023-03-11T07:47:27.249Z,2.71
2023-03-11T07:49:30.659Z,3.03
2023-03-11T07:51:36.107Z,3.09
2023-03-11T07:53:40.651Z,3.15
2023-03-11T07:55:43.953Z,3.05
2023-03-11T07:57:48.742Z,3.09
2023-03-11T07:59:52.431Z,3.11
2023-03-11T08:01:57.130Z,3.18
2023-03-11T08:04:00.494Z,3.03
2023-03-11T08:06:04.867Z,3.09
2023-03-11T08:08:08.205Z,3.24
2023-03-11T08:10:12.850Z,3.20
2023-03-11T08:12:17.024Z,3.25
2023-03-11T08:14:20.447Z,3.40
2023-03-11T08:16:23.845Z,3.47
2023-03-11T08:18:28.479Z,3.45
2023-03-11T08:20:31.994Z,3.50
2023-03-11T08:22:36.147Z,3.30
2023-03-11T08:24:40.277Z,3.44
2023-03-11T08:26:43.800Z,3.36
2023-03-11T08:28:47.853Z,3.38
2023-03-11T08:30:51.212Z,3.49
2023-03-11T08:32:54.813Z,3.55
2023-03-11T08:35:00.241Z,4.67
2023-03-11T08:37:03.818Z,5.24
2023-03-11T08:39:07.587Z,4.96
2023-03-11T08:41:11.134Z,4.63
2023-03-11T08:43:15.799Z,4.45
2023-03-11T08:45:19.568Z,4.36
2023-03-11T08:47:23.055Z,4.25
2023-03-11T08:49:26.557Z,4.23
2023-03-11T08:51:32.698Z,4.27
2023-03-11T08:53:37.612Z,4.37
2023-03-11T08:55:41.057Z,4.35
2023-03-11T08:57:44.490Z,4.32
2023-03-11T08:59:47.923Z,4.26
2023-03-11T09:01:51.384Z,4.32
2023-03-11T09:03:54.778Z,4.37
2023-03-11T09:05:58.879Z,4.39
2023-03-11T09:08:05.719Z,4.35
2023-03-11T09:10:10.290Z,4.47
2023-03-11T09:12:14.064Z,4.52
2023-03-11T09:14:17.557Z,4.52
2023-03-11T09:16:22.874Z,4.56
2023-03-11T09:18:27.285Z,4.54
2023-03-11T09:20:30.646Z,4.67
2023-03-11T09:22:34.037Z,4.43
2023-03-11T09:24:38.875Z,4.74
2023-03-11T09:26:42.199Z,4.80
2023-03-11T09:28:48.967Z,4.89
2023-03-11T09:30:52.724Z,4.80
2023-03-11T09:32:56.124Z,4.88
2023-03-11T09:35:00.185Z,4.91
2023-03-11T09:37:03.525Z,4.84
2023-03-11T09:39:06.891Z,4.91
2023-03-11T09:41:26.769Z,4.93
2023-03-11T09:43:48.372Z,4.96
2023-03-11T09:45:56.534Z,4.82
2023-03-11T09:48:13.814Z,4.76
2023-03-11T09:50:27.466Z,5.08
2023-03-11T09:52:39.000Z,5.26
2023-03-11T09:54:46.383Z,5.37
2023-03-11T09:56:51.781Z,5.40
2023-03-11T09:59:01.019Z,5.11
2023-03-11T10:01:10.732Z,5.01
2023-03-11T10:03:30.247Z,5.10
2023-03-11T10:05:33.692Z,4.88
2023-03-11T10:07:41.212Z,5.00
2023-03-11T10:09:49.127Z,5.02
2023-03-11T10:12:03.594Z,5.14
2023-03-11T10:14:15.473Z,5.38
2023-03-11T10:16:25.869Z,5.52
2023-03-11T10:18:44.756Z,5.82
2023-03-11T10:20:57.769Z,5.70
2023-03-11T10:23:13.046Z,5.82
2023-03-11T10:25:18.138Z,6.08
2023-03-11T10:27:28.610Z,6.22
2023-03-11T10:29:39.696Z,6.25
2023-03-11T10:31:47.655Z,6.43
2023-03-11T10:33:56.020Z,6.46
2023-03-11T10:36:04.787Z,6.68
2023-03-11T10:38:15.856Z,6.84
2023-03-11T10:40:27.806Z,6.71
2023-03-11T10:42:34.886Z,6.71
2023-03-11T10:44:39.889Z,6.69
2023-03-11T10:46:45.310Z,6.81
2023-03-11T10:48:49.061Z,6.69
2023-03-11T10:50:58.362Z,6.59
2023-03-11T10:53:14.321Z,6.76
2023-03-11T10:55:19.912Z,6.81
2023-03-11T10:57:28.161Z,6.85
2023-03-11T10:59:34.994Z,6.60
2023-03-11T11:01:38.410Z,6.45
2023-03-11T11:03:43.254Z,6.59
2023-03-11T11:05:58.979Z,6.85
2023-03-11T11:08:08.400Z,6.83
2023-03-11T11:10:18.827Z,6.67
2023-03-11T11:12:22.309Z,6.57
2023-03-11T11:14:25.601Z,6.62
2023-03-11T11:16:30.706Z,6.57
2023-03-11T11:18:37.960Z,6.46
2023-03-11T11:20:54.979Z,6.47
2023-03-11T11:23:00.550Z,6.50
2023-03-11T11:25:04.043Z,6.45
2023-03-11T11:27:16.100Z,6.45
2023-03-11T11:29:19.620Z,6.49
2023-03-11T11:31:25.941Z,6.43
2023-03-11T11:33:32.573Z,6.32
2023-03-11T11:35:35.998Z,6.38
2023-03-11T11:37:43.024Z,6.48
2023-03-11T11:39:51.937Z,6.59
2023-03-11T11:41:57.452Z,6.54
2023-03-11T11:44:03.965Z,6.49
2023-03-11T11:46:14.570Z,6.50
2023-03-11T11:48:23.639Z,6.47
2023-03-11T11:50:34.556Z,6.56
2023-03-11T11:52:45.075Z,6.73
2023-03-11T11:54:53.972Z,7.00
2023-03-11T11:56:58.231Z,7.07
2023-03-11T11:59:02.190Z,7.17
2023-03-11T12:01:16.287Z,7.11
2023-03-11T12:03:39.788Z,7.77
2023-03-11T12:05:52.129Z,8.02
2023-03-11T12:08:07.326Z,7.81
2023-03-11T12:10:24.145Z,7.47
2023-03-11T12:12:33.899Z,7.72
2023-03-11T12:14:42.786Z,7.97
2023-03-11T12:16:54.885Z,7.91
2023-03-11T12:19:01.586Z,7.79
2023-03-11T12:21:23.655Z,7.58
2023-03-11T12:23:43.912Z,7.58
2023-03-11T12:26:03.324Z,7.47
2023-03-11T12:28:19.565Z,6.99
2023-03-11T12:30:27.679Z,6.08
2023-03-11T12:32:35.622Z,6.81
2023-03-11T12:34:38.924Z,6.75
2023-03-11T12:36:47.599Z,6.52
2023-03-11T12:38:51.917Z,6.71
2023-03-11T12:41:04.207Z,6.70
2023-03-11T12:43:25.215Z,6.67
2023-03-11T12:45:50.856Z,6.63
2023-03-11T12:48:23.982Z,6.13
2023-03-11T12:50:41.619Z,6.48
2023-03-11T12:53:04.397Z,6.72
2023-03-11T12:55:32.794Z,6.59
2023-03-11T12:57:42.058Z,6.85
2023-03-11T13:00:12.233Z,7.10
2023-03-11T13:02:32.617Z,7.17
2023-03-11T13:04:48.532Z,7.23
2023-03-11T13:07:09.581Z,7.44
2023-03-11T13:09:18.370Z,7.69
2023-03-11T13:11:36.868Z,8.14
2023-03-11T13:13:41.622Z,7.82
2023-03-11T13:15:45.053Z,8.73
2023-03-11T13:17:59.314Z,8.67
2023-03-11T13:20:02.976Z,8.67
2023-03-11T13:22:27.456Z,8.70
2023-03-11T13:24:54.049Z,8.75
2023-03-11T13:27:04.889Z,8.78
2023-03-11T13:29:30.412Z,8.61
2023-03-11T13:31:52.912Z,9.02
2023-03-11T13:33:58.910Z,8.87
2023-03-11T13:36:11.592Z,8.94
2023-03-11T13:38:35.089Z,9.48
2023-03-11T13:40:41.872Z,9.95
2023-03-11T13:42:49.364Z,10.46
2023-03-11T13:44:53.379Z,10.53
2023-03-11T13:47:02.375Z,10.68
2023-03-11T13:49:11.260Z,10.65
2023-03-11T13:51:18.740Z,10.68
2023-03-11T13:53:26.818Z,10.77
2023-03-11T13:55:35.714Z,11.14
2023-03-11T13:57:40.426Z,10.96
2023-03-11T13:59:43.837Z,10.89
2023-03-11T14:01:51.441Z,11.07
2023-03-11T14:03:54.967Z,11.31
2023-03-11T14:06:01.760Z,11.45
2023-03-11T14:08:19.188Z,11.62
2023-03-11T14:10:30.139Z,11.80
2023-03-11T14:12:33.585Z,11.40
2023-03-11T14:14:47.714Z,11.11
2023-03-11T14:16:51.245Z,11.28
2023-03-11T14:19:04.152Z,11.77
2023-03-11T14:21:13.739Z,12.23
2023-03-11T14:23:20.392Z,12.24
2023-03-11T14:25:26.719Z,12.23
2023-03-11T14:27:30.265Z,11.25
2023-03-11T14:29:36.151Z,11.03
2023-03-11T14:31:43.865Z,11.04
2023-03-11T14:33:55.957Z,11.32
2023-03-11T14:36:02.519Z,11.50
2023-03-11T14:38:21.067Z,12.02
2023-03-11T14:40:27.222Z,12.36
2023-03-11T14:42:36.535Z,12.56
2023-03-11T14:44:42.995Z,12.85
2023-03-11T14:46:48.746Z,12.36
2023-03-11T14:48:53.552Z,11.85
2023-03-11T14:50:58.706Z,11.90
2023-03-11T14:53:08.863Z,11.71
2023-03-11T14:55:16.193Z,11.77
2023-03-11T14:57:24.104Z,11.98
2023-03-11T14:59:32.418Z,12.26
2023-03-11T15:01:40.577Z,12.65
2023-03-11T15:03:51.162Z,12.41
2023-03-11T15:05:57.529Z,12.23
2023-03-11T15:08:03.868Z,12.06
2023-03-11T15:10:10.602Z,12.30
2023-03-11T15:12:32.808Z,12.54
2023-03-11T15:14:49.071Z,12.17
2023-03-11T15:16:53.216Z,12.59
2023-03-11T15:19:00.810Z,12.54
2023-03-11T15:21:07.645Z,12.70
2023-03-11T15:23:21.815Z,12.43
2023-03-11T15:25:25.399Z,12.27
2023-03-11T15:27:31.646Z,12.24
2023-03-11T15:29:37.217Z,12.47
2023-03-11T15:31:42.584Z,12.60
2023-03-11T15:33:46.068Z,12.45
2023-03-11T15:35:51.716Z,12.13
2023-03-11T15:38:14.634Z,12.18
2023-03-11T15:40:35.325Z,12.06
2023-03-11T15:42:46.280Z,12.06
2023-03-11T15:45:07.264Z,12.13
2023-03-11T15:47:15.535Z,11.77
2023-03-11T15:49:19.009Z,12.10
2023-03-11T15:51:23.855Z,12.03
2023-03-11T15:53:29.206Z,11.50
2023-03-11T15:55:32.678Z,11.13
2023-03-11T15:57:36.072Z,11.26
2023-03-11T15:59:41.202Z,10.92
2023-03-11T16:01:46.252Z,9.97
2023-03-11T16:03:49.754Z,9.65
2023-03-11T16:05:53.218Z,9.60
2023-03-11T16:07:57.937Z,9.98
2023-03-11T16:10:03.906Z,10.10
2023-03-11T16:12:15.793Z,10.12
2023-03-11T16:14:22.063Z,10.00
2023-03-11T16:16:25.548Z,9.87
2023-03-11T16:18:29.001Z,9.89
2023-03-11T16:20:35.780Z,9.81
2023-03-11T16:22:39.452Z,9.74
2023-03-11T16:24:44.838Z,9.62
2023-03-11T16:26:48.405Z,9.07
2023-03-11T16:28:51.725Z,9.41
2023-03-11T16:30:55.396Z,9.08
2023-03-11T16:32:59.067Z,9.27
2023-03-11T16:35:02.505Z,9.07
2023-03-11T16:37:06.246Z,8.91
2023-03-11T16:39:10.201Z,8.97
2023-03-11T16:41:15.393Z,8.90
2023-03-11T16:43:18.792Z,8.69
2023-03-11T16:45:22.357Z,8.70
2023-03-11T16:47:25.933Z,8.76
2023-03-11T16:49:29.338Z,8.79
2023-03-11T16:51:33.157Z,8.74
2023-03-11T16:53:36.448Z,8.73
2023-03-11T16:55:39.778Z,8.65
2023-03-11T16:57:44.982Z,8.66
2023-03-11T16:59:49.360Z,8.53
2023-03-11T17:01:52.833Z,8.26
2023-03-11T17:03:56.283Z,8.17
2023-03-11T17:06:03.783Z,7.80
2023-03-11T17:08:07.606Z,8.05
2023-03-11T17:10:12.419Z,8.01
2023-03-11T17:12:18.330Z,7.98
2023-03-11T17:14:24.318Z,8.08
2023-03-11T17:16:27.789Z,7.90
2023-03-11T17:18:31.184Z,7.75
2023-03-11T17:20:34.598Z,8.01
2023-03-11T17:22:37.980Z,7.98
2023-03-11T17:24:41.442Z,7.93
2023-03-11T17:26:44.984Z,7.87
2023-03-11T17:28:48.805Z,7.88
2023-03-11T17:30:53.489Z,7.89
2023-03-11T17:32:56.930Z,7.94
2023-03-11T17:35:00.330Z,7.89
2023-03-11T17:37:03.701Z,7.83
2023-03-11T17:39:07.511Z,7.87
2023-03-11T17:41:12.593Z,7.71
2023-03-11T17:43:16.964Z,7.82
2023-03-11T17:45:20.368Z,7.83
2023-03-11T17:47:26.902Z,7.78
2023-03-11T17:49:30.582Z,7.91
2023-03-11T17:51:34.996Z,7.93
2023-03-11T17:53:39.110Z,7.83
2023-03-11T17:55:42.411Z,7.88
2023-03-11T17:57:46.156Z,7.89
2023-03-11T17:59:51.165Z,7.93
2023-03-11T18:01:54.588Z,7.94
2023-03-11T18:03:59.463Z,7.92
2023-03-11T18:06:04.698Z,7.91
2023-03-11T18:08:08.053Z,7.89
2023-03-11T18:10:12.983Z,7.87
2023-03-11T18:12:16.279Z,7.84
2023-03-11T18:14:19.700Z,7.79
2023-03-11T18:16:25.683Z,7.76
2023-03-11T18:18:30.775Z,7.69
2023-03-11T18:20:37.652Z,7.58
2023-03-11T18:22:44.443Z,7.56
2023-03-11T18:24:49.382Z,7.30
2023-03-11T18:26:52.767Z,7.44
2023-03-11T18:28:56.490Z,7.40
2023-03-11T18:31:06.832Z,7.36
2023-03-11T18:33:10.320Z,7.33
2023-03-11T18:35:14.202Z,7.29
2023-03-11T18:37:19.019Z,7.20
2023-03-11T18:39:22.466Z,7.19
2023-03-11T18:41:27.051Z,6.98
2023-03-11T18:43:30.875Z,6.68
2023-03-11T18:45:34.448Z,6.66
2023-03-11T18:47:38.133Z,6.79
2023-03-11T18:49:42.712Z,6.75
2023-03-11T18:51:46.345Z,6.51
2023-03-11T18:53:51.077Z,6.14
2023-03-11T18:56:00.510Z,5.22
2023-03-11T18:58:09.261Z,6.06
2023-03-11T19:00:13.636Z,6.03
2023-03-11T19:02:16.989Z,6.27
2023-03-11T19:04:20.358Z,6.24
2023-03-11T19:06:24.456Z,6.25
2023-03-11T19:08:28.418Z,6.21
2023-03-11T19:10:33.229Z,6.26
2023-03-11T19:12:38.096Z,6.21
2023-03-11T19:14:41.503Z,6.15
2023-03-11T19:16:44.974Z,6.14
2023-03-11T19:18:48.311Z,6.09
2023-03-11T19:20:57.583Z,6.04
2023-03-11T19:23:00.924Z,6.07
2023-03-11T19:25:05.305Z,5.88
2023-03-11T19:27:10.030Z,5.95
2023-03-11T19:29:14.485Z,5.97
2023-03-11T19:31:17.995Z,5.90
2023-03-11T19:33:22.508Z,5.91
2023-03-11T19:35:26.315Z,5.87
2023-03-11T19:37:31.391Z,5.82
2023-03-11T19:39:34.871Z,5.80
2023-03-11T19:41:38.230Z,5.73
2023-03-11T19:43:43.252Z,5.71
2023-03-11T19:45:50.168Z,5.49
2023-03-11T19:47:53.623Z,5.77
2023-03-11T19:49:58.692Z,5.70
2023-03-11T19:52:02.375Z,5.76
2023-03-11T19:54:05.734Z,5.69
2023-03-11T19:56:09.570Z,5.70
2023-03-11T19:58:13.367Z,5.70
2023-03-11T20:00:19.750Z,5.56
2023-03-11T20:02:23.236Z,5.70
2023-03-11T20:04:26.792Z,5.69
2023-03-11T20:06:30.525Z,5.62
2023-03-11T20:08:36.635Z,5.64
2023-03-11T20:10:42.002Z,5.60
2023-03-11T20:13:01.251Z,5.57
2023-03-11T20:15:06.009Z,5.58
2023-03-11T20:17:12.065Z,5.49
2023-03-11T20:19:15.585Z,5.44
2023-03-11T20:21:18.992Z,5.42
2023-03-11T20:23:22.387Z,5.31
2023-03-11T20:25:30.865Z,5.28
2023-03-11T20:27:34.215Z,5.26
2023-03-11T20:29:37.922Z,5.10
2023-03-11T20:31:41.576Z,4.95
2023-03-11T20:33:46.776Z,4.90
2023-03-11T20:35:50.377Z,4.87
2023-03-11T20:37:53.830Z,5.01
2023-03-11T20:39:57.778Z,5.04
2023-03-11T20:42:01.182Z,5.01
2023-03-11T20:44:06.513Z,4.90
2023-03-11T20:46:11.609Z,4.84
2023-03-11T20:48:15.118Z,4.82
2023-03-11T20:50:21.386Z,4.74
2023-03-11T20:52:25.596Z,4.76
2023-03-11T20:54:29.131Z,4.80
2023-03-11T20:56:32.609Z,4.89
2023-03-11T20:58:36.718Z,4.91
2023-03-11T21:00:40.092Z,4.86
2023-03-11T21:02:44.393Z,4.77
2023-03-11T21:04:47.943Z,4.87
2023-03-11T21:06:54.888Z,4.86
2023-03-11T21:09:00.594Z,4.93
2023-03-11T21:11:03.998Z,4.95
2023-03-11T21:13:07.735Z,4.99
2023-03-11T21:15:12.355Z,4.84
2023-03-11T21:17:17.332Z,5.00
2023-03-11T21:19:22.418Z,5.01
2023-03-11T21:21:25.944Z,5.01
2023-03-11T21:23:30.701Z,4.94
2023-03-11T21:25:34.688Z,4.91
2023-03-11T21:27:38.059Z,4.91
2023-03-11T21:29:43.838Z,4.90
2023-03-11T21:31:47.247Z,4.87
2023-03-11T21:33:54.134Z,4.82
2023-03-11T21:35:59.917Z,4.77
2023-03-11T21:38:03.335Z,4.76
2023-03-11T21:40:10.159Z,4.76
2023-03-11T21:42:14.285Z,4.74
2023-03-11T21:44:18.080Z,4.74
2023-03-11T21:46:23.990Z,4.45
2023-03-11T21:48:27.615Z,4.73
2023-03-11T21:50:30.986Z,3.97
2023-03-11T21:52:34.408Z,4.68
2023-03-11T21:54:37.871Z,4.65
2023-03-11T21:56:42.788Z,4.57
2023-03-11T21:58:46.366Z,4.52
2023-03-11T22:00:50.140Z,4.53
2023-03-11T22:02:53.533Z,4.49
2023-03-11T22:04:57.025Z,4.31
2023-03-11T22:07:00.575Z,4.51
2023-03-11T22:09:05.597Z,4.54
2023-03-11T22:11:10.680Z,4.52
2023-03-11T22:13:15.506Z,4.51
2023-03-11T22:15:19.170Z,4.50
2023-03-11T22:17:22.745Z,4.44
2023-03-11T22:19:26.232Z,4.43
2023-03-11T22:21:29.625Z,4.40
2023-03-11T22:23:34.939Z,4.44
2023-03-11T22:25:38.404Z,4.28
2023-03-11T22:27:41.792Z,4.47
2023-03-11T22:29:46.516Z,4.49
2023-03-11T22:31:50.078Z,4.48
2023-03-11T22:33:53.439Z,4.48
2023-03-11T22:35:59.271Z,4.26
2023-03-11T22:38:02.722Z,4.49
2023-03-11T22:40:08.737Z,4.52
2023-03-11T22:42:12.871Z,4.52
2023-03-11T22:44:16.192Z,4.48
2023-03-11T22:46:20.895Z,4.42
2023-03-11T22:48:24.372Z,4.44
2023-03-11T22:50:28.201Z,4.48
2023-03-11T22:52:31.665Z,4.52
2023-03-11T22:54:35.029Z,4.53
2023-03-11T22:56:38.365Z,4.41
2023-03-11T22:58:42.176Z,4.15
2023-03-11T23:00:45.494Z,4.01
2023-03-11T23:02:53.615Z,3.87
2023-03-11T23:04:57.074Z,3.71
2023-03-11T23:07:00.402Z,3.63
2023-03-11T23:09:04.569Z,3.68
2023-03-11T23:11:10.107Z,3.64
2023-03-11T23:13:13.870Z,3.61
2023-03-11T23:15:19.800Z,3.69
2023-03-11T23:17:23.101Z,3.80
2023-03-11T23:19:27.749Z,3.95
2023-03-11T23:21:33.073Z,3.95
2023-03-11T23:23:36.471Z,4.06
2023-03-11T23:25:40.903Z,3.83
2023-03-11T23:27:46.636Z,3.64
2023-03-11T23:29:50.559Z,3.60
2023-03-11T23:31:54.022Z,3.69
2023-03-11T23:33:57.828Z,3.64
2023-03-11T23:36:03.396Z,3.72
2023-03-11T23:38:06.788Z,3.65
2023-03-11T23:40:11.413Z,3.57
2023-03-11T23:42:24.940Z,3.51
2023-03-11T23:44:29.374Z,3.27
2023-03-11T23:46:33.268Z,3.39
2023-03-11T23:48:36.753Z,3.41
2023-03-11T23:50:40.042Z,3.49
2023-03-11T23:52:44.815Z,3.41
2023-03-11T23:54:48.186Z,3.34
2023-03-11T23:56:51.611Z,3.38
2023-03-11T23:58:55.021Z,3.41
